Terminal Aerodrome Forecast
Issued by NWS Grand Forks, ND

Home | Current Version | Previous Version | Text Only | Print | Product List | Glossary On
Versions: 1 2 3 4 5 6 7 8 9 10 11 12 13 14 15 16 17 18 19 20 21
931
FTUS43 KFGF 142336
TAFFAR
TAF
KFAR 142336Z 1500/1524 17010KT P6SM OVC015
     FM150400 18006KT P6SM OVC015
     FM150800 20005KT P6SM OVC015
     FM151100 21006KT P6SM OVC025
     FM151200 21006KT P6SM BKN040=

USA.gov is the U.S. government's official web portal to all federal, state and local government web resources and services.